createdAt,value
2019-03-03T00:04:04.919Z,12.10
2019-03-03T00:09:10.737Z,12.00
2019-03-03T00:14:16.809Z,12.10
2019-03-03T00:19:22.797Z,12.10
2019-03-03T00:24:28.549Z,12.10
2019-03-03T00:29:34.413Z,12.10
2019-03-03T00:34:40.229Z,12.10
2019-03-03T00:39:50.893Z,12.20
2019-03-03T00:45:06.088Z,12.20
2019-03-03T00:50:17.610Z,12.20
2019-03-03T00:55:42.535Z,12.20
2019-03-03T01:00:55.642Z,12.20
2019-03-03T01:06:20.418Z,12.10
2019-03-03T01:11:48.200Z,12.10
2019-03-03T01:17:13.136Z,12.10
2019-03-03T01:22:44.216Z,12.20
2019-03-03T01:27:50.080Z,12.10
2019-03-03T01:32:55.852Z,12.20
2019-03-03T01:38:01.836Z,12.20
2019-03-03T01:43:07.726Z,12.10
2019-03-03T01:48:14.997Z,12.10
2019-03-03T01:53:20.765Z,12.10
2019-03-03T01:58:26.657Z,12.10
2019-03-03T02:03:34.129Z,12.10
2019-03-03T02:08:40.031Z,12.10
2019-03-03T02:13:46.003Z,12.10
2019-03-03T02:18:51.965Z,11.90
2019-03-03T02:23:57.933Z,11.80
2019-03-03T02:29:05.197Z,11.60
2019-03-03T02:34:11.031Z,11.50
2019-03-03T02:39:18.859Z,11.50
2019-03-03T02:44:24.919Z,11.40
2019-03-03T02:49:30.781Z,11.40
2019-03-03T02:54:36.697Z,11.40
2019-03-03T02:59:42.525Z,11.30
2019-03-03T03:04:48.487Z,11.30
2019-03-03T03:10:08.416Z,11.20
2019-03-03T03:15:32.627Z,11.20
2019-03-03T03:21:00.158Z,11.20
2019-03-03T03:26:23.175Z,11.20
2019-03-03T03:31:38.918Z,11.20
2019-03-03T03:37:18.894Z,11.10
2019-03-03T03:42:36.716Z,11.10
2019-03-03T03:48:02.530Z,11.10
2019-03-03T03:53:22.732Z,11.10
2019-03-03T03:58:37.313Z,11.00
2019-03-03T04:04:03.687Z,11.00
2019-03-03T04:09:24.307Z,10.90
2019-03-03T04:14:36.816Z,10.90
2019-03-03T04:20:04.728Z,10.90
2019-03-03T04:25:29.528Z,10.90
2019-03-03T04:30:50.439Z,10.90
2019-03-03T04:36:14.787Z,10.80
2019-03-03T04:41:30.869Z,10.80
2019-03-03T04:47:05.969Z,10.80
2019-03-03T04:52:19.771Z,10.80
2019-03-03T04:57:43.443Z,10.80
2019-03-03T05:03:01.938Z,10.90
2019-03-03T05:08:29.548Z,10.90
2019-03-03T05:13:49.218Z,10.90
2019-03-03T05:19:12.020Z,11.00
2019-03-03T05:24:17.836Z,10.90
2019-03-03T05:29:23.599Z,10.90
2019-03-03T05:34:29.467Z,10.90
2019-03-03T05:39:35.274Z,10.90
2019-03-03T05:44:41.131Z,11.00
2019-03-03T05:49:47.019Z,10.90
2019-03-03T05:54:53.152Z,11.00
2019-03-03T06:00:00.347Z,11.00
2019-03-03T06:05:06.338Z,11.00
2019-03-03T06:10:12.462Z,11.00
2019-03-03T06:15:18.302Z,11.10
2019-03-03T06:20:24.273Z,11.10
2019-03-03T06:25:30.044Z,11.20
2019-03-03T06:30:36.044Z,11.20
2019-03-03T06:35:41.935Z,11.20
2019-03-03T06:40:47.778Z,11.30
2019-03-03T06:45:53.641Z,11.30
2019-03-03T06:50:59.394Z,11.40
2019-03-03T06:56:05.036Z,11.40
2019-03-03T07:01:12.066Z,11.50
2019-03-03T07:06:17.949Z,11.50
2019-03-03T07:11:23.808Z,11.50
2019-03-03T07:16:29.600Z,11.50
2019-03-03T07:21:35.561Z,11.50
2019-03-03T07:26:41.441Z,11.50
2019-03-03T07:31:47.541Z,11.60
2019-03-03T07:36:53.354Z,11.60
2019-03-03T07:41:59.455Z,11.60
2019-03-03T07:47:05.323Z,11.60
2019-03-03T07:52:11.322Z,11.60
2019-03-03T07:57:17.406Z,11.60
2019-03-03T08:02:23.504Z,11.70
2019-03-03T08:07:29.412Z,11.70
2019-03-03T08:12:35.335Z,11.70
2019-03-03T08:17:41.297Z,11.80
2019-03-03T08:22:47.385Z,11.80
2019-03-03T08:27:53.323Z,11.90
2019-03-03T08:32:59.132Z,11.90
2019-03-03T08:38:05.215Z,11.90
2019-03-03T08:43:21.707Z,11.90
2019-03-03T08:48:40.814Z,11.90
2019-03-03T08:53:56.197Z,11.90
2019-03-03T08:59:20.943Z,11.90
2019-03-03T09:04:51.898Z,12.00
2019-03-03T09:10:10.828Z,11.90
2019-03-03T09:15:35.503Z,12.00
2019-03-03T09:20:53.644Z,12.00
2019-03-03T09:26:14.034Z,11.90
2019-03-03T09:31:53.956Z,11.90
2019-03-03T09:37:08.425Z,11.90
2019-03-03T09:42:33.252Z,12.00
2019-03-03T09:47:57.946Z,11.90
2019-03-03T09:53:34.843Z,11.90
2019-03-03T09:59:14.988Z,12.00
2019-03-03T10:04:38.434Z,12.00
2019-03-03T10:09:58.708Z,11.90
2019-03-03T10:15:22.344Z,11.90
2019-03-03T10:20:47.316Z,12.10
2019-03-03T10:26:10.738Z,12.10
2019-03-03T10:31:31.371Z,12.10
2019-03-03T10:37:02.458Z,12.10
2019-03-03T10:42:22.753Z,12.10
2019-03-03T10:48:06.082Z,12.10
2019-03-03T10:53:17.501Z,12.10
2019-03-03T10:58:40.417Z,12.00
2019-03-03T11:04:03.991Z,12.10
2019-03-03T11:09:36.808Z,12.10
2019-03-03T11:15:18.458Z,12.10
2019-03-03T11:20:49.798Z,12.00
2019-03-03T11:26:13.278Z,12.00
2019-03-03T11:31:37.897Z,12.00
2019-03-03T11:36:48.741Z,12.00
2019-03-03T11:42:13.178Z,12.10
2019-03-03T11:47:36.924Z,12.10
2019-03-03T11:52:48.206Z,12.10
2019-03-03T11:58:05.620Z,12.00
2019-03-03T12:03:25.411Z,12.00
2019-03-03T12:08:49.920Z,11.90
2019-03-03T12:14:29.626Z,11.90
2019-03-03T12:19:58.274Z,11.90
2019-03-03T12:25:19.418Z,11.90
2019-03-03T12:30:31.432Z,11.90
2019-03-03T12:35:54.650Z,11.90
2019-03-03T12:41:19.203Z,11.90
2019-03-03T12:46:37.350Z,12.00
2019-03-03T12:51:55.733Z,11.90
2019-03-03T12:57:38.111Z,11.90
2019-03-03T13:03:03.624Z,11.90
2019-03-03T13:08:33.962Z,11.90
2019-03-03T13:13:50.604Z,11.90
2019-03-03T13:19:14.277Z,11.90
2019-03-03T13:24:31.476Z,12.00
2019-03-03T13:29:56.766Z,11.90
2019-03-03T13:35:21.136Z,12.10
2019-03-03T13:40:48.626Z,12.20
2019-03-03T13:45:54.202Z,12.30
2019-03-03T13:50:59.807Z,12.20
2019-03-03T13:56:05.347Z,12.20
2019-03-03T14:01:10.838Z,12.30
2019-03-03T14:06:16.396Z,12.20
2019-03-03T14:11:27.929Z,12.30
2019-03-03T14:16:33.473Z,12.30
2019-03-03T14:21:39.085Z,12.30
2019-03-03T14:26:44.518Z,12.30
2019-03-03T14:31:50.083Z,12.40
2019-03-03T14:36:55.635Z,12.30
2019-03-03T14:42:01.406Z,12.40
2019-03-03T14:47:06.949Z,12.30
2019-03-03T14:52:12.712Z,12.30
2019-03-03T14:57:18.172Z,12.20
2019-03-03T15:02:23.802Z,12.20
2019-03-03T15:07:29.417Z,12.20
2019-03-03T15:12:35.925Z,12.10
2019-03-03T15:17:46.421Z,12.10
2019-03-03T15:22:53.798Z,11.90
2019-03-03T15:27:59.866Z,11.70
2019-03-03T15:33:05.855Z,11.70
2019-03-03T15:38:11.774Z,11.40
2019-03-03T15:43:17.457Z,11.30
2019-03-03T15:48:23.182Z,11.30
2019-03-03T15:53:28.786Z,11.30
2019-03-03T15:58:34.394Z,11.30
2019-03-03T16:03:40.166Z,11.30
2019-03-03T16:08:45.744Z,11.40
2019-03-03T16:13:51.435Z,11.40
2019-03-03T16:18:57.370Z,11.40
2019-03-03T16:24:03.083Z,11.50
2019-03-03T16:29:08.894Z,11.50
2019-03-03T16:34:14.622Z,11.50
2019-03-03T16:39:20.148Z,11.50
2019-03-03T16:44:25.898Z,11.50
2019-03-03T16:49:31.513Z,11.50
2019-03-03T16:54:37.016Z,11.50
2019-03-03T16:59:42.690Z,11.50
2019-03-03T17:04:48.535Z,11.60
2019-03-03T17:09:54.312Z,11.70
2019-03-03T17:14:59.857Z,11.70
2019-03-03T17:20:06.335Z,11.70
2019-03-03T17:25:14.351Z,11.80
2019-03-03T17:30:21.138Z,11.90
2019-03-03T17:35:26.771Z,11.90
2019-03-03T17:40:32.407Z,11.90
2019-03-03T17:45:38.175Z,11.80
2019-03-03T17:50:43.870Z,11.80
2019-03-03T17:55:49.500Z,11.80
2019-03-03T18:00:55.118Z,11.80
2019-03-03T18:06:00.586Z,11.70
2019-03-03T18:11:06.325Z,11.70
2019-03-03T18:16:11.829Z,11.70
2019-03-03T18:21:17.515Z,11.70
2019-03-03T18:26:22.978Z,11.70
2019-03-03T18:31:28.497Z,11.60
2019-03-03T18:36:34.165Z,11.50
2019-03-03T18:41:39.754Z,11.40
2019-03-03T18:46:45.331Z,11.30
2019-03-03T18:51:51.098Z,11.20
2019-03-03T18:56:56.534Z,11.10
2019-03-03T19:02:01.950Z,11.10
2019-03-03T19:07:07.361Z,11.10
2019-03-03T19:12:13.042Z,11.00
2019-03-03T19:17:18.596Z,10.90
2019-03-03T19:22:24.086Z,10.90
2019-03-03T19:27:29.679Z,10.90
2019-03-03T19:32:35.283Z,10.90
2019-03-03T19:37:41.111Z,10.80
2019-03-03T19:42:46.692Z,10.80
2019-03-03T19:47:52.291Z,10.80
2019-03-03T19:52:57.877Z,10.90
2019-03-03T19:58:03.655Z,10.80
2019-03-03T20:03:09.410Z,10.80
2019-03-03T20:08:15.267Z,10.70
2019-03-03T20:13:20.949Z,10.70
2019-03-03T20:18:26.495Z,10.60
2019-03-03T20:23:32.007Z,10.60
2019-03-03T20:28:37.758Z,10.50
2019-03-03T20:33:43.467Z,10.60
2019-03-03T20:38:49.082Z,10.50
2019-03-03T20:43:54.556Z,10.40
2019-03-03T20:49:00.329Z,10.50
2019-03-03T20:54:05.928Z,10.50
2019-03-03T20:59:11.540Z,10.40
2019-03-03T21:04:17.208Z,10.40
2019-03-03T21:09:23.403Z,10.30
2019-03-03T21:14:28.847Z,10.40
2019-03-03T21:19:34.420Z,10.30
2019-03-03T21:24:40.102Z,10.40
2019-03-03T21:29:46.156Z,10.30
2019-03-03T21:34:51.931Z,10.30
2019-03-03T21:39:57.503Z,10.20
2019-03-03T21:45:02.968Z,10.20
2019-03-03T21:50:10.061Z,10.20
2019-03-03T21:55:15.803Z,10.20
2019-03-03T22:00:28.229Z,10.20
2019-03-03T22:05:33.913Z,10.20
2019-03-03T22:10:39.717Z,10.10
2019-03-03T22:15:45.387Z,10.10
2019-03-03T22:20:50.933Z,10.00
2019-03-03T22:25:56.465Z,10.00
2019-03-03T22:31:01.724Z,9.90
2019-03-03T22:36:07.691Z,9.90
2019-03-03T22:41:13.141Z,9.90
2019-03-03T22:46:18.822Z,9.90
2019-03-03T22:51:24.283Z,9.80
2019-03-03T22:56:29.951Z,9.90
2019-03-03T23:01:42.916Z,9.80
2019-03-03T23:07:10.558Z,9.80
2019-03-03T23:13:05.617Z,9.80
2019-03-03T23:18:57.646Z,9.80
2019-03-03T23:24:50.736Z,9.80
2019-03-03T23:29:56.524Z,9.70
2019-03-03T23:35:02.114Z,9.70
2019-03-03T23:40:07.936Z,9.70
2019-03-03T23:45:13.399Z,9.70
2019-03-03T23:50:19.062Z,9.70
2019-03-03T23:55:24.528Z,9.80
